Time;durP1;ratioP1;P1;durP2;ratioP2;P2;SDS_P1;SDS_P2;PMS_P1;PMS_P2;Temp;Humidity;BMP_temperature;BMP_pressure;BME280_temperature;BME280_humidity;BME280_pressure;Samples;Min_cycle;Max_cycle;Signal;HPM_P1;HPM_P2
2023/08/30 00:00:21;;;;;;;31.15;17.20;;;12.50;99.90;;;;;;5052569;28;20560;-78
2023/08/30 00:02:47;;;;;;;30.83;16.92;;;12.50;99.90;;;;;;5084558;28;20513;-77
2023/08/30 00:05:14;;;;;;;30.10;17.20;;;12.50;99.90;;;;;;5085348;28;20051;-78
2023/08/30 00:07:39;;;;;;;30.35;16.48;;;12.40;99.90;;;;;;5052159;28;20132;-77
2023/08/30 00:10:10;;;;;;;31.63;16.95;;;12.40;99.90;;;;;;5052548;28;20500;-78
2023/08/30 00:12:36;;;;;;;33.03;17.35;;;12.40;99.90;;;;;;5052598;28;20132;-76
2023/08/30 00:15:02;;;;;;;29.60;16.52;;;12.40;99.90;;;;;;5085400;28;20084;-77
2023/08/30 00:17:28;;;;;;;35.25;16.58;;;12.40;99.90;;;;;;5056120;28;20041;-77
2023/08/30 00:19:55;;;;;;;33.70;16.75;;;12.30;99.90;;;;;;5056070;28;20103;-76
2023/08/30 00:22:22;;;;;;;32.05;17.40;;;12.30;99.90;;;;;;5056367;28;20049;-77
2023/08/30 00:24:48;;;;;;;32.10;16.65;;;12.20;99.90;;;;;;5054551;28;20095;-78
2023/08/30 00:27:13;;;;;;;35.53;17.60;;;12.20;99.90;;;;;;5056751;28;20089;-78
2023/08/30 00:29:39;;;;;;;35.20;16.88;;;12.20;99.90;;;;;;5055887;28;20560;-77
2023/08/30 00:32:05;;;;;;;36.55;16.73;;;12.20;99.90;;;;;;5056223;28;20057;-77
2023/08/30 00:34:30;;;;;;;33.70;15.82;;;12.20;99.90;;;;;;5088933;28;20409;-78
2023/08/30 00:36:56;;;;;;;31.15;15.95;;;12.20;99.90;;;;;;5054834;28;20055;-77
2023/08/30 00:39:22;;;;;;;31.00;15.93;;;12.20;99.90;;;;;;5056083;28;20048;-78
2023/08/30 00:41:48;;;;;;;28.58;15.43;;;12.10;99.90;;;;;;5055605;28;20432;-77
2023/08/30 00:44:13;;;;;;;33.95;16.20;;;12.20;99.90;;;;;;5056120;28;20055;-78
2023/08/30 00:46:39;;;;;;;31.85;16.20;;;12.20;99.90;;;;;;5055517;28;20045;-78
2023/08/30 00:49:06;;;;;;;32.53;16.38;;;12.10;99.90;;;;;;5037942;28;20041;-78
2023/08/30 00:51:32;;;;;;;29.13;14.63;;;12.10;99.90;;;;;;5055837;28;20041;-78
2023/08/30 00:53:59;;;;;;;32.50;14.52;;;12.10;99.90;;;;;;5055707;28;20052;-80
2023/08/30 00:56:27;;;;;;;;;;;12.10;99.90;;;;;;5056958;28;20060;-77
2023/08/30 00:58:53;;;;;;;30.08;14.25;;;12.10;99.90;;;;;;5055980;28;19920;-78
2023/08/30 01:01:20;;;;;;;28.02;13.48;;;12.10;99.90;;;;;;5088805;28;20048;-80
2023/08/30 01:03:45;;;;;;;25.65;13.18;;;12.10;99.90;;;;;;5055524;28;20081;-78
2023/08/30 01:06:13;;;;;;;25.67;13.20;;;12.10;99.90;;;;;;5055692;28;20088;-79
2023/08/30 01:08:40;;;;;;;29.67;13.98;;;12.20;99.90;;;;;;5054596;28;20478;-79
2023/08/30 01:11:35;;;;;;;28.23;15.02;;;12.30;99.90;;;;;;5055933;28;20056;-78
2023/08/30 01:14:07;;;;;;;27.23;14.20;;;12.30;99.90;;;;;;5050117;28;20060;-79
2023/08/30 01:16:35;;;;;;;31.67;14.13;;;12.40;99.90;;;;;;5088333;28;20068;-79
2023/08/30 01:19:20;;;;;;;28.33;14.45;;;12.50;99.90;;;;;;5070686;28;21023;-78
2023/08/30 01:22:05;;;;;;;27.13;13.50;;;12.50;99.90;;;;;;5088136;28;20060;-77
2023/08/30 01:24:45;;;;;;;29.77;14.20;;;12.50;99.90;;;;;;5088261;28;20049;-79
2023/08/30 01:27:12;;;;;;;28.33;14.40;;;12.60;99.90;;;;;;5055618;28;20044;-79
2023/08/30 01:29:42;;;;;;;32.03;14.35;;;12.60;99.90;;;;;;5074645;28;20064;-78
2023/08/30 01:32:09;;;;;;;30.13;15.07;;;12.60;99.90;;;;;;5061130;28;20067;-78
2023/08/30 01:34:39;;;;;;;;;;;12.60;99.90;;;;;;5061556;28;20075;-78
2023/08/30 01:37:08;;;;;;;29.23;13.77;;;12.60;99.90;;;;;;5065826;28;19932;-76
2023/08/30 01:39:40;;;;;;;32.15;14.65;;;12.60;99.90;;;;;;5101993;28;20052;-78
2023/08/30 01:42:08;;;;;;;31.05;15.35;;;12.60;99.90;;;;;;5068671;28;20052;-78
2023/08/30 01:44:34;;;;;;;32.83;15.38;;;12.50;99.90;;;;;;5068397;28;20384;-76
2023/08/30 01:47:00;;;;;;;32.72;15.45;;;12.60;99.90;;;;;;5063262;28;20104;-77
2023/08/30 01:49:31;;;;;;;31.48;16.00;;;12.60;99.90;;;;;;5095818;28;20136;-77
2023/08/30 01:51:57;;;;;;;32.55;15.68;;;12.50;99.90;;;;;;5062131;28;20118;-76
2023/08/30 01:54:25;;;;;;;32.45;15.90;;;12.50;99.90;;;;;;5094106;28;20132;-77
2023/08/30 01:56:50;;;;;;;33.22;16.23;;;12.50;99.90;;;;;;5060545;28;20051;-77
2023/08/30 01:59:16;;;;;;;37.70;15.77;;;12.50;99.90;;;;;;5060556;28;20124;-78
2023/08/30 02:01:42;;;;;;;32.85;16.13;;;12.50;99.90;;;;;;5058514;28;20561;-77
2023/08/30 02:04:08;;;;;;;30.25;15.40;;;12.50;99.90;;;;;;5055696;28;20053;-77
2023/08/30 02:07:03;;;;;;;33.30;16.20;;;12.50;99.90;;;;;;5055501;28;20448;-78
2023/08/30 02:09:56;;;;;;;30.58;14.88;;;12.50;99.90;;;;;;5055342;28;20135;-79
2023/08/30 02:12:25;;;;;;;34.80;15.57;;;12.50;99.90;;;;;;5055404;28;20060;-78
2023/08/30 02:14:52;;;;;;;29.52;15.73;;;12.50;99.90;;;;;;5054283;28;20049;-78
2023/08/30 02:17:19;;;;;;;33.83;16.20;;;12.50;99.90;;;;;;5053244;28;20052;-77
2023/08/30 02:19:45;;;;;;;32.28;16.30;;;12.40;99.90;;;;;;5054512;28;20052;-78
2023/08/30 02:22:11;;;;;;;33.97;16.50;;;12.40;99.90;;;;;;5053887;28;20052;-77
2023/08/30 02:24:37;;;;;;;34.30;15.63;;;12.40;99.90;;;;;;5054324;28;20048;-78
2023/08/30 02:27:03;;;;;;;31.88;16.05;;;12.30;99.90;;;;;;5052606;28;20045;-78
2023/08/30 02:29:29;;;;;;;34.77;15.73;;;12.30;99.90;;;;;;5054053;28;20091;-79
2023/08/30 02:31:55;;;;;;;34.95;16.88;;;12.30;99.90;;;;;;5051957;28;20041;-76
2023/08/30 02:34:21;;;;;;;33.05;17.10;;;12.30;99.90;;;;;;5054426;28;20060;-78
2023/08/30 02:36:47;;;;;;;34.08;16.20;;;12.30;99.90;;;;;;5052963;28;20053;-78
2023/08/30 02:39:15;;;;;;;37.00;16.90;;;12.40;99.90;;;;;;5085736;28;20562;-78
2023/08/30 02:41:41;;;;;;;35.15;16.25;;;12.40;99.90;;;;;;5053809;28;20056;-78
2023/08/30 02:44:11;;;;;;;37.97;17.90;;;12.40;99.90;;;;;;5085822;28;20049;-77
2023/08/30 02:46:37;;;;;;;38.13;17.33;;;12.50;99.90;;;;;;5085635;28;20049;-77
2023/08/30 02:49:03;;;;;;;38.05;17.02;;;12.50;99.90;;;;;;5053229;28;20044;-79
2023/08/30 02:51:29;;;;;;;35.97;16.83;;;12.50;99.90;;;;;;5052492;28;20045;-78
2023/08/30 02:53:54;;;;;;;34.08;16.52;;;12.50;99.90;;;;;;5053037;28;20053;-76
2023/08/30 02:56:20;;;;;;;32.20;15.43;;;12.40;99.90;;;;;;5053363;28;20079;-77
2023/08/30 02:58:46;;;;;;;30.83;15.85;;;12.40;99.90;;;;;;5052566;28;20099;-79
2023/08/30 03:01:12;;;;;;;32.60;16.45;;;12.30;99.90;;;;;;5051746;28;20114;-77
2023/08/30 03:03:37;;;;;;;32.95;15.80;;;12.20;99.90;;;;;;5053461;28;20055;-79
2023/08/30 03:06:03;;;;;;;34.63;16.05;;;12.20;99.90;;;;;;5085674;28;20091;-77
2023/08/30 03:08:29;;;;;;;35.17;16.17;;;12.10;99.90;;;;;;5052446;28;20392;-80
2023/08/30 03:10:55;;;;;;;33.22;16.55;;;12.10;99.90;;;;;;5053493;28;20072;-78
2023/08/30 03:13:20;;;;;;;37.75;16.35;;;12.00;99.90;;;;;;5085380;28;20091;-78
2023/08/30 03:15:46;;;;;;;36.22;16.38;;;11.90;99.90;;;;;;5051940;28;20080;-79
2023/08/30 03:18:12;;;;;;;32.80;15.43;;;11.90;99.90;;;;;;5053027;28;20105;-79
2023/08/30 03:20:38;;;;;;;36.40;16.02;;;11.90;99.90;;;;;;5053232;28;20531;-80
2023/08/30 03:23:03;;;;;;;36.20;15.93;;;11.90;99.90;;;;;;5052807;28;20128;-80
2023/08/30 03:25:30;;;;;;;31.92;15.30;;;11.80;99.90;;;;;;5085411;28;20049;-80
2023/08/30 03:27:56;;;;;;;33.92;15.60;;;11.80;99.90;;;;;;5053172;28;20044;-80
2023/08/30 03:30:21;;;;;;;34.70;16.33;;;11.80;99.90;;;;;;5084924;28;20397;-80
2023/08/30 03:32:47;;;;;;;33.45;15.88;;;11.80;99.90;;;;;;5053111;28;20056;-79
2023/08/30 03:35:14;;;;;;;34.90;15.85;;;11.80;99.90;;;;;;5052755;28;20044;-77
2023/08/30 03:37:40;;;;;;;32.88;15.55;;;11.80;99.90;;;;;;5053086;28;20501;-77
2023/08/30 03:40:07;;;;;;;33.70;16.17;;;11.80;99.90;;;;;;5052272;28;20040;-77
2023/08/30 03:42:32;;;;;;;32.03;14.97;;;11.80;99.90;;;;;;5051516;28;20451;-77
2023/08/30 03:44:58;;;;;;;29.17;14.38;;;11.80;99.90;;;;;;5051222;28;20279;-78
2023/08/30 03:47:24;;;;;;;30.02;14.98;;;11.90;99.90;;;;;;5067836;28;20493;-77
2023/08/30 03:49:50;;;;;;;33.95;15.55;;;11.90;99.90;;;;;;5085182;28;20056;-78
2023/08/30 03:52:15;;;;;;;31.95;14.77;;;11.90;99.90;;;;;;5052592;28;20083;-76
2023/08/30 03:54:41;;;;;;;31.60;14.63;;;11.80;99.90;;;;;;5097127;28;20045;-78
2023/08/30 03:57:07;;;;;;;34.92;15.07;;;11.90;99.90;;;;;;5058862;28;20064;-77
2023/08/30 03:59:33;;;;;;;31.58;14.88;;;11.80;99.90;;;;;;5051638;28;20397;-78
2023/08/30 04:01:59;;;;;;;28.65;14.23;;;11.80;99.90;;;;;;5035800;28;20045;-79
2023/08/30 04:04:24;;;;;;;32.47;14.52;;;11.80;99.90;;;;;;5051347;28;20457;-78
2023/08/30 04:06:50;;;;;;;33.35;14.70;;;11.80;99.90;;;;;;5052630;28;20432;-78
2023/08/30 04:09:16;;;;;;;31.23;14.10;;;11.80;99.90;;;;;;5084539;28;20139;-78
2023/08/30 04:11:42;;;;;;;28.45;13.65;;;11.70;99.90;;;;;;5053013;28;20045;-79
2023/08/30 04:14:08;;;;;;;32.88;13.93;;;11.70;99.90;;;;;;5052270;28;20477;-79
2023/08/30 04:16:33;;;;;;;33.97;14.40;;;11.70;99.90;;;;;;5051715;28;20071;-79
2023/08/30 04:18:59;;;;;;;30.17;14.18;;;11.70;99.90;;;;;;5051724;28;20084;-78
2023/08/30 04:21:25;;;;;;;31.52;14.23;;;11.70;99.90;;;;;;5034998;28;20316;-78
2023/08/30 04:23:51;;;;;;;29.08;13.30;;;11.60;99.90;;;;;;5085455;28;20136;-78
2023/08/30 04:26:16;;;;;;;29.15;13.52;;;11.70;99.90;;;;;;5052444;28;20045;-80
2023/08/30 04:28:42;;;;;;;29.85;12.85;;;11.80;99.90;;;;;;5051347;28;20083;-79
2023/08/30 04:31:08;;;;;;;29.60;13.82;;;11.80;99.90;;;;;;5051316;28;20074;-77
2023/08/30 04:33:34;;;;;;;28.90;13.40;;;11.80;99.90;;;;;;5084855;28;20094;-79
2023/08/30 04:36:00;;;;;;;30.70;13.70;;;11.80;99.90;;;;;;5052514;28;20179;-80
2023/08/30 04:38:26;;;;;;;33.00;14.45;;;11.80;99.90;;;;;;5050873;28;20135;-77
2023/08/30 04:41:00;;;;;;;28.42;14.00;;;11.90;99.90;;;;;;5051083;28;20128;-78
2023/08/30 04:43:25;;;;;;;32.28;13.70;;;11.90;99.90;;;;;;5051919;28;20053;-79
2023/08/30 04:45:51;;;;;;;28.42;12.80;;;12.00;99.90;;;;;;5068057;28;20132;-78
2023/08/30 04:48:17;;;;;;;31.15;13.45;;;12.00;99.90;;;;;;5084384;28;20048;-78
2023/08/30 04:50:43;;;;;;;28.40;13.55;;;12.00;99.90;;;;;;5052271;28;20045;-78
2023/08/30 04:53:08;;;;;;;29.45;13.45;;;12.00;99.90;;;;;;5035320;28;20401;-78
2023/08/30 04:55:34;;;;;;;30.10;13.30;;;12.10;99.90;;;;;;5086282;28;20048;-79
2023/08/30 04:58:00;;;;;;;27.52;12.15;;;12.10;99.90;;;;;;5085536;28;20048;-77
2023/08/30 05:00:25;;;;;;;29.65;13.32;;;12.10;99.90;;;;;;5052562;28;20041;-78
2023/08/30 05:02:51;;;;;;;29.33;13.32;;;12.20;99.90;;;;;;5053638;28;20045;-78
2023/08/30 05:05:17;;;;;;;28.13;13.13;;;12.20;99.90;;;;;;5054484;28;20045;-77
2023/08/30 05:07:43;;;;;;;30.75;13.27;;;12.30;99.90;;;;;;5088920;28;20052;-78
2023/08/30 05:10:09;;;;;;;32.08;13.13;;;12.30;99.90;;;;;;5056194;28;20041;-80
2023/08/30 05:12:35;;;;;;;31.40;13.10;;;12.40;99.90;;;;;;5055134;28;20041;-80
2023/08/30 05:15:01;;;;;;;34.00;14.10;;;12.40;99.90;;;;;;5088127;28;20120;-79
2023/08/30 05:17:28;;;;;;;32.58;14.07;;;12.40;99.90;;;;;;5053679;28;20136;-78
2023/08/30 05:19:54;;;;;;;30.38;12.57;;;12.40;99.90;;;;;;5055816;28;20060;-77
2023/08/30 05:22:20;;;;;;;34.88;13.52;;;12.50;99.90;;;;;;5055163;28;20049;-79
2023/08/30 05:24:46;;;;;;;32.10;13.98;;;12.50;99.90;;;;;;5055461;28;20052;-79
2023/08/30 05:27:12;;;;;;;31.35;13.48;;;12.50;99.90;;;;;;5053718;28;20104;-78
2023/08/30 05:29:38;;;;;;;28.17;13.20;;;12.50;99.90;;;;;;5055019;28;20053;-79
2023/08/30 05:32:05;;;;;;;27.55;12.75;;;12.50;99.90;;;;;;5087406;28;20053;-76
2023/08/30 05:34:31;;;;;;;24.23;12.50;;;12.60;99.90;;;;;;5054611;28;20056;-76
2023/08/30 05:36:56;;;;;;;32.05;12.82;;;12.60;99.90;;;;;;5053954;28;20053;-76
2023/08/30 05:39:22;;;;;;;32.70;13.20;;;12.70;99.90;;;;;;5053123;28;20052;-76
2023/08/30 05:41:48;;;;;;;30.58;13.20;;;12.70;99.90;;;;;;5053402;28;20110;-76
2023/08/30 05:44:14;;;;;;;31.00;12.98;;;12.70;99.90;;;;;;5054770;28;20126;-77
2023/08/30 05:46:40;;;;;;;34.25;13.25;;;12.80;99.90;;;;;;5086500;28;20063;-77
2023/08/30 05:49:06;;;;;;;31.35;13.65;;;12.80;99.90;;;;;;5054542;28;20081;-77
2023/08/30 05:51:31;;;;;;;29.70;13.15;;;12.80;99.90;;;;;;5054149;28;20052;-76
2023/08/30 05:53:57;;;;;;;31.05;13.32;;;12.90;99.90;;;;;;5054452;28;20044;-77
2023/08/30 05:56:23;;;;;;;32.45;13.60;;;12.90;99.90;;;;;;5053810;28;20509;-76
2023/08/30 05:58:49;;;;;;;28.80;13.10;;;13.00;99.90;;;;;;5053341;28;20048;-78
2023/08/30 06:01:18;;;;;;;28.43;12.67;;;13.00;99.90;;;;;;5054538;28;20115;-77
2023/08/30 06:03:45;;;;;;;35.03;14.15;;;13.10;99.90;;;;;;5054154;28;20048;-77
2023/08/30 06:06:11;;;;;;;34.33;13.45;;;13.10;99.90;;;;;;5058543;28;20053;-76
2023/08/30 06:08:37;;;;;;;30.65;13.50;;;13.20;99.90;;;;;;5056811;28;20413;-77
2023/08/30 06:11:03;;;;;;;32.63;13.73;;;13.20;99.90;;;;;;5054499;28;20423;-77
2023/08/30 06:13:29;;;;;;;33.72;14.70;;;13.20;99.90;;;;;;5069402;28;20049;-76
2023/08/30 06:15:54;;;;;;;37.38;13.60;;;13.30;99.90;;;;;;5054196;28;20068;-76
2023/08/30 06:18:20;;;;;;;34.78;13.65;;;13.30;99.90;;;;;;5054074;28;20045;-77
2023/08/30 06:20:47;;;;;;;36.55;14.05;;;13.40;99.90;;;;;;5053663;28;20047;-77
2023/08/30 06:23:13;;;;;;;33.28;14.25;;;13.40;99.90;;;;;;5054057;28;20455;-77
2023/08/30 06:25:39;;;;;;;30.15;12.63;;;13.50;99.90;;;;;;5053344;28;20420;-76
2023/08/30 06:28:05;;;;;;;34.70;13.85;;;13.50;99.90;;;;;;5086189;28;20044;-76
2023/08/30 06:30:31;;;;;;;34.72;14.48;;;13.50;99.90;;;;;;5052282;28;20041;-79
2023/08/30 06:32:57;;;;;;;34.67;14.43;;;13.70;99.90;;;;;;5053521;28;20052;-78
2023/08/30 06:35:23;;;;;;;34.67;14.17;;;13.70;99.90;;;;;;5052525;28;20453;-77
2023/08/30 06:37:49;;;;;;;32.63;14.27;;;13.80;99.90;;;;;;5052064;28;20512;-77
2023/08/30 06:40:15;;;;;;;34.17;14.30;;;13.90;99.90;;;;;;5053531;28;20061;-77
2023/08/30 06:42:41;;;;;;;40.83;14.70;;;14.00;99.90;;;;;;5053067;28;20049;-79
2023/08/30 06:45:07;;;;;;;34.55;14.57;;;14.10;99.90;;;;;;5085898;28;20044;-77
2023/08/30 06:47:33;;;;;;;38.07;14.40;;;14.20;99.90;;;;;;5051817;28;20049;-76
2023/08/30 06:50:01;;;;;;;37.92;15.32;;;14.30;99.90;;;;;;5053334;28;20708;-76
2023/08/30 06:52:27;;;;;;;41.38;15.10;;;14.30;99.90;;;;;;5053030;28;20512;-77
2023/08/30 06:54:53;;;;;;;36.80;14.57;;;14.40;99.90;;;;;;5052816;28;20452;-78
2023/08/30 06:57:19;;;;;;;37.22;15.50;;;14.40;99.90;;;;;;5053340;28;20489;-76
2023/08/30 06:59:45;;;;;;;36.63;15.45;;;14.40;99.90;;;;;;5051866;28;20044;-76
2023/08/30 07:02:10;;;;;;;35.47;15.55;;;14.40;99.90;;;;;;5053285;28;20408;-79
2023/08/30 07:04:36;;;;;;;41.92;15.65;;;14.40;99.90;;;;;;5052585;28;20504;-78
2023/08/30 07:07:02;;;;;;;35.00;14.73;;;14.40;99.90;;;;;;5085166;28;20076;-77
2023/08/30 07:09:29;;;;;;;39.03;15.97;;;14.40;99.90;;;;;;5053054;28;20059;-76
2023/08/30 07:11:58;;;;;;;40.92;16.02;;;14.30;99.90;;;;;;5053043;28;20512;-77
2023/08/30 07:14:26;;;;;;;37.20;16.27;;;14.40;99.90;;;;;;5052942;28;20120;-78
2023/08/30 07:16:52;;;;;;;37.58;16.20;;;14.50;99.90;;;;;;5051446;28;20052;-77
2023/08/30 07:19:19;;;;;;;39.47;16.48;;;14.60;99.90;;;;;;5051904;28;20049;-76
2023/08/30 07:21:45;;;;;;;39.47;16.52;;;14.70;99.90;;;;;;5051116;28;20118;-79
2023/08/30 07:24:11;;;;;;;39.60;17.08;;;14.90;99.90;;;;;;5052924;28;20102;-76
2023/08/30 07:26:37;;;;;;;35.13;15.17;;;15.10;99.90;;;;;;5084418;28;20049;-75
2023/08/30 07:29:04;;;;;;;38.03;15.93;;;15.30;99.90;;;;;;5052794;28;20045;-78
2023/08/30 07:31:31;;;;;;;33.20;14.57;;;15.50;99.90;;;;;;5052804;28;20095;-75
2023/08/30 07:33:59;;;;;;;35.25;14.85;;;15.60;99.90;;;;;;5050566;28;20111;-75
2023/08/30 07:36:26;;;;;;;41.33;15.82;;;15.70;99.90;;;;;;5052346;28;20509;-76
2023/08/30 07:38:52;;;;;;;37.75;15.05;;;15.80;99.90;;;;;;5052789;28;20421;-76
2023/08/30 07:41:19;;;;;;;44.00;15.93;;;16.00;99.90;;;;;;5068481;28;20134;-75
2023/08/30 07:43:45;;;;;;;32.83;14.70;;;16.10;99.90;;;;;;5084955;28;20049;-75
2023/08/30 07:46:11;;;;;;;35.83;14.57;;;16.30;99.90;;;;;;5052780;28;20056;-76
2023/08/30 07:53:47;;;;;;;37.33;14.00;;;16.50;99.90;;;;;;5438609;22;20062;-73
2023/08/30 07:56:13;;;;;;;42.50;14.40;;;16.70;99.90;;;;;;4993160;28;20444;-74
2023/08/30 07:58:42;;;;;;;36.30;14.85;;;16.70;99.90;;;;;;4991380;28;20097;-76
2023/08/30 08:01:08;;;;;;;44.15;14.88;;;16.80;99.90;;;;;;4993355;28;20101;-75
2023/08/30 08:03:33;;;;;;;34.47;13.98;;;16.80;99.90;;;;;;4992723;28;20063;-73
2023/08/30 08:06:03;;;;;;;37.08;15.30;;;16.70;99.90;;;;;;4993105;28;20050;-75
2023/08/30 08:08:29;;;;;;;32.13;13.80;;;16.70;99.90;;;;;;4975726;28;20117;-76
2023/08/30 08:10:55;;;;;;;35.25;14.20;;;16.80;99.90;;;;;;4992943;28;20042;-74
2023/08/30 08:13:20;;;;;;;38.35;15.48;;;16.70;99.90;;;;;;4975756;28;20050;-78
2023/08/30 08:15:46;;;;;;;34.58;14.73;;;16.70;99.90;;;;;;4992646;28;20481;-75
2023/08/30 08:18:12;;;;;;;33.63;15.27;;;16.50;99.90;;;;;;4993164;28;20043;-74
2023/08/30 08:20:39;;;;;;;36.47;15.02;;;16.40;99.90;;;;;;4991490;28;20445;-74
2023/08/30 08:23:04;;;;;;;37.58;15.25;;;16.30;99.90;;;;;;4992874;28;20046;-75
2023/08/30 08:25:30;;;;;;;35.63;15.10;;;16.40;99.90;;;;;;4992818;28;20402;-76
2023/08/30 08:27:56;;;;;;;36.38;15.13;;;16.30;99.90;;;;;;4959318;28;20046;-76
2023/08/30 08:30:22;;;;;;;36.58;15.68;;;16.30;99.90;;;;;;4991784;28;20437;-75
2023/08/30 08:32:48;;;;;;;35.80;15.20;;;16.30;99.90;;;;;;4991522;28;20050;-74
2023/08/30 08:35:14;;;;;;;42.58;16.33;;;16.10;99.90;;;;;;4992798;28;20425;-75
2023/08/30 08:37:40;;;;;;;39.03;16.17;;;16.00;99.90;;;;;;4993472;28;20061;-75
2023/08/30 08:40:08;;;;;;;37.33;16.80;;;15.90;99.90;;;;;;4979116;28;20057;-75
2023/08/30 08:42:35;;;;;;;38.08;17.67;;;15.70;99.90;;;;;;4978754;28;20563;-76
2023/08/30 08:45:02;;;;;;;38.85;17.10;;;15.60;99.90;;;;;;4995313;28;20046;-76
2023/08/30 08:47:30;;;;;;;37.25;16.80;;;15.50;99.90;;;;;;4996702;28;20507;-75
2023/08/30 08:49:56;;;;;;;41.72;17.63;;;15.50;99.90;;;;;;4995087;28;20042;-75
2023/08/30 08:52:24;;;;;;;39.13;16.23;;;15.30;99.90;;;;;;4996203;28;20057;-75
2023/08/30 08:54:50;;;;;;;40.30;16.75;;;15.30;99.90;;;;;;4995857;28;20117;-76
2023/08/30 08:57:17;;;;;;;35.87;16.50;;;15.20;99.90;;;;;;4980045;28;20128;-76
2023/08/30 08:59:43;;;;;;;37.72;16.10;;;15.30;99.90;;;;;;4996030;28;20129;-76
2023/08/30 09:02:12;;;;;;;38.53;16.07;;;15.30;99.90;;;;;;4995652;28;20046;-75
2023/08/30 09:04:39;;;;;;;37.05;15.88;;;15.30;99.90;;;;;;4994592;28;20289;-74
2023/08/30 09:07:05;;;;;;;37.33;17.48;;;15.30;99.90;;;;;;4995836;28;20046;-75
2023/08/30 09:09:32;;;;;;;33.97;14.80;;;15.30;99.90;;;;;;4995875;28;20054;-74
2023/08/30 09:11:58;;;;;;;;;;;15.20;99.90;;;;;;4996444;28;20133;-74
2023/08/30 09:14:24;;;;;;;35.73;14.43;;;15.20;99.90;;;;;;4994813;28;19995;-73
2023/08/30 09:16:56;;;;;;;36.03;14.77;;;15.10;99.90;;;;;;4992745;28;20194;-73
2023/08/30 09:19:22;;;;;;;40.03;16.58;;;15.10;99.90;;;;;;4994173;28;20043;-73
2023/08/30 09:21:58;;;;;;;32.90;15.15;;;14.90;99.90;;;;;;4993206;28;20042;-75
2023/08/30 09:24:24;;;;;;;36.22;15.07;;;15.00;99.90;;;;;;4994470;28;20141;-75
2023/08/30 09:26:55;;;;;;;36.20;14.80;;;14.90;99.90;;;;;;4994187;28;20108;-73
2023/08/30 09:29:23;;;;;;;42.13;16.45;;;15.00;99.90;;;;;;4995123;28;20046;-74
2023/08/30 09:31:52;;;;;;;33.25;15.32;;;15.00;99.90;;;;;;4995041;28;20042;-73
2023/08/30 09:34:23;;;;;;;39.72;16.52;;;15.00;99.90;;;;;;4963106;28;20050;-75
2023/08/30 09:36:50;;;;;;;34.75;15.20;;;15.10;99.90;;;;;;4993515;28;20035;-75
2023/08/30 09:39:16;;;;;;;;;;;15.10;99.90;;;;;;4996245;28;20046;-74
2023/08/30 09:41:43;;;;;;;32.55;14.82;;;15.20;99.90;;;;;;4978271;28;20017;-74
2023/08/30 09:44:11;;;;;;;;;;;15.30;99.90;;;;;;4995683;28;20054;-75
2023/08/30 09:46:56;;;;;;;38.50;14.25;;;15.40;99.90;;;;;;4993528;28;20333;-75
2023/08/30 09:49:25;;;;;;;30.70;14.13;;;15.50;99.90;;;;;;4993985;28;20086;-75
2023/08/30 09:51:52;;;;;;;33.60;15.13;;;15.60;99.90;;;;;;4994567;28;20042;-76
2023/08/30 09:54:18;;;;;;;;;;;15.50;99.90;;;;;;4977843;28;20517;-76
2023/08/30 09:56:45;;;;;;;30.67;12.15;;;15.70;99.90;;;;;;4992373;28;19922;-76
2023/08/30 09:59:12;;;;;;;30.67;12.27;;;15.80;99.90;;;;;;4988724;28;20054;-74
2023/08/30 10:01:39;;;;;;;24.50;11.10;;;15.90;99.90;;;;;;4961309;28;20184;-75
2023/08/30 10:04:08;;;;;;;25.40;10.27;;;16.10;99.90;;;;;;4993252;28;20053;-73
2023/08/30 10:06:38;;;;;;;25.88;10.68;;;16.10;99.90;;;;;;4992902;28;20049;-73
2023/08/30 10:09:05;;;;;;;25.92;11.40;;;16.20;99.90;;;;;;4993174;28;20046;-73
2023/08/30 10:11:35;;;;;;;26.17;11.27;;;16.30;99.90;;;;;;4993778;28;20058;-73
2023/08/30 10:14:03;;;;;;;25.33;10.18;;;16.40;99.90;;;;;;4992856;28;20506;-73
2023/08/30 10:16:35;;;;;;;26.73;10.90;;;16.40;99.90;;;;;;4988868;28;20054;-73
2023/08/30 10:19:09;;;;;;;28.25;12.38;;;16.40;99.90;;;;;;4993027;28;20054;-72
2023/08/30 10:21:37;;;;;;;25.75;11.88;;;16.30;99.90;;;;;;4993852;28;20105;-73
2023/08/30 10:24:07;;;;;;;27.13;11.95;;;16.20;99.90;;;;;;4992471;28;20057;-75
2023/08/30 10:26:33;;;;;;;29.83;11.75;;;16.20;99.90;;;;;;4991827;28;20046;-72
2023/08/30 10:29:00;;;;;;;30.27;12.50;;;16.20;99.90;;;;;;4991905;28;20042;-73
2023/08/30 10:31:28;;;;;;;26.38;12.48;;;16.20;99.90;;;;;;4991587;28;20512;-72
2023/08/30 10:33:54;;;;;;;28.35;12.30;;;16.10;99.90;;;;;;4993702;28;20449;-73
2023/08/30 10:36:24;;;;;;;27.65;12.52;;;15.90;99.90;;;;;;4991215;28;20109;-72
2023/08/30 10:38:54;;;;;;;26.45;12.18;;;15.90;99.90;;;;;;4976561;28;20398;-75
2023/08/30 10:41:27;;;;;;;27.77;12.60;;;15.80;99.90;;;;;;4992716;28;20077;-72
2023/08/30 10:43:55;;;;;;;34.95;14.85;;;15.80;99.90;;;;;;4993459;28;20074;-74
2023/08/30 10:46:36;;;;;;;30.80;14.00;;;15.70;99.90;;;;;;4990631;28;20112;-73
2023/08/30 10:49:14;;;;;;;37.13;15.05;;;15.70;99.90;;;;;;4993059;28;20049;-72
2023/08/30 10:51:41;;;;;;;35.70;16.60;;;15.70;99.90;;;;;;4993657;28;20433;-74
2023/08/30 10:54:15;;;;;;;37.75;19.95;;;15.60;99.90;;;;;;4993012;28;20062;-73
2023/08/30 10:57:00;;;;;;;38.75;18.25;;;15.60;99.90;;;;;;4991806;28;20050;-72
2023/08/30 10:59:27;;;;;;;42.53;17.58;;;15.50;99.90;;;;;;4993658;28;20125;-72
2023/08/30 11:01:53;;;;;;;38.85;18.88;;;15.40;99.90;;;;;;4993251;28;20497;-75
2023/08/30 11:04:21;;;;;;;34.20;16.77;;;15.40;99.90;;;;;;4992152;28;20490;-73
2023/08/30 11:06:49;;;;;;;39.50;17.75;;;15.40;99.90;;;;;;4992814;28;20054;-72
2023/08/30 11:09:19;;;;;;;32.10;17.02;;;15.30;99.90;;;;;;4991806;28;20472;-73
2023/08/30 11:11:47;;;;;;;39.50;17.90;;;15.40;99.90;;;;;;4993583;28;20136;-74
2023/08/30 11:14:13;;;;;;;37.95;18.60;;;15.40;99.90;;;;;;4992198;28;20630;-74
2023/08/30 11:16:39;;;;;;;42.85;22.77;;;15.40;99.90;;;;;;4991522;28;20054;-74
2023/08/30 11:19:06;;;;;;;40.65;22.33;;;15.30;99.90;;;;;;4991027;28;20394;-73
2023/08/30 11:21:33;;;;;;;;;;;15.30;99.90;;;;;;4994132;28;20057;-73
2023/08/30 11:23:58;;;;;;;29.02;13.98;;;15.30;99.90;;;;;;4991719;28;19969;-76
2023/08/30 11:26:24;;;;;;;25.48;11.13;;;15.40;99.90;;;;;;4991475;28;20121;-74
2023/08/30 11:28:52;;;;;;;27.70;12.63;;;15.40;99.90;;;;;;4993644;28;20046;-75
2023/08/30 11:31:23;;;;;;;25.52;12.15;;;15.50;99.90;;;;;;4993055;28;20053;-76
2023/08/30 11:33:57;;;;;;;25.83;12.48;;;15.40;99.90;;;;;;4992285;28;20137;-78
2023/08/30 11:36:25;;;;;;;27.50;12.50;;;15.50;99.90;;;;;;4992839;28;20053;-75
2023/08/30 11:38:52;;;;;;;28.23;12.15;;;15.50;99.90;;;;;;4973999;28;20136;-77
2023/08/30 11:41:19;;;;;;;24.92;12.77;;;15.40;99.90;;;;;;4990509;28;20380;-75
2023/08/30 11:43:45;;;;;;;29.60;15.73;;;15.50;99.90;;;;;;4993051;28;20049;-77
2023/08/30 11:46:12;;;;;;;31.85;15.88;;;15.50;99.90;;;;;;4989436;28;20050;-76
2023/08/30 11:48:41;;;;;;;31.33;14.77;;;15.50;99.90;;;;;;4992509;28;20050;-76
2023/08/30 11:51:08;;;;;;;30.77;16.27;;;15.50;99.90;;;;;;4991043;28;20046;-78
2023/08/30 11:53:34;;;;;;;28.20;15.13;;;15.40;99.90;;;;;;4993060;28;20525;-75
2023/08/30 11:56:00;;;;;;;30.50;15.02;;;15.40;99.90;;;;;;4991951;28;20391;-79
2023/08/30 11:58:26;;;;;;;29.87;14.77;;;15.50;99.90;;;;;;4992893;28;20402;-76
2023/08/30 12:00:54;;;;;;;29.60;13.88;;;15.40;99.90;;;;;;4993209;28;20293;-76
2023/08/30 12:03:22;;;;;;;28.85;14.15;;;15.50;99.90;;;;;;4992431;28;20532;-75
2023/08/30 12:05:50;;;;;;;25.67;14.20;;;15.60;99.90;;;;;;4992416;28;20044;-77
2023/08/30 12:08:30;;;;;;;28.38;15.02;;;15.60;99.90;;;;;;4990847;28;20121;-75
2023/08/30 12:10:56;;;;;;;25.95;13.35;;;15.50;99.90;;;;;;4991765;28;20462;-76
2023/08/30 12:13:27;;;;;;;29.20;13.50;;;15.60;99.90;;;;;;4979202;28;20050;-75
2023/08/30 12:15:54;;;;;;;21.88;11.20;;;15.60;99.90;;;;;;4995271;28;20402;-75
2023/08/30 12:18:20;;;;;;;;;;;15.70;99.90;;;;;;4996632;28;20117;-75
2023/08/30 12:21:04;;;;;;;28.30;12.68;;;15.70;99.90;;;;;;4995020;28;19922;-75
2023/08/30 12:23:32;;;;;;;23.13;11.13;;;15.70;99.90;;;;;;4996538;28;20569;-75
2023/08/30 12:26:09;;;;;;;32.67;21.63;;;15.80;99.90;;;;;;4995808;28;20056;-75
2023/08/30 12:28:38;;;;;;;25.77;13.48;;;15.90;99.90;;;;;;4995696;28;20060;-77
2023/08/30 12:31:04;;;;;;;25.20;12.27;;;16.10;99.90;;;;;;4996368;28;20101;-80
2023/08/30 12:33:31;;;;;;;21.90;11.05;;;16.20;99.90;;;;;;4996673;28;20054;-75
2023/08/30 12:35:57;;;;;;;19.95;10.05;;;16.20;99.90;;;;;;4995169;28;20413;-74